EA1JAY-1
43.21.53N 005.51.47W
IN73BI aprs.fi
zuletzt gehoert:
2021-06-09T10:07:36Z
zuerst gehoert:
2020-02-23T15:49:57Z

APRS Oviedo [IN73BI], 0 Stunde(n), EA1JAY-1 [13:13:12, 0s].
33D00 43.21.63N 005.51.13WIN73BI 0.613km 20°NNE11:02:10Z33-D-00 Protección Civil REMER / Delegación del Gobierno en Asturias
EA1YR 43.22.09N 005.51.86WIN73BI 1.651km 331°NNW11:03:54ZMMDVM DVS 434.3500/434.3500 CC1
EA1L 43.20.37N 005.51.13WIN73BI 1.750km 173°S11:10:08Zea1l@ure.es V=11.7V,T=??.?C
Wind 038°/001kn, Böen bis 005kn, Temp 27.78c, Regen 0.0mm, letzte 24h 0.0mm, seit 0h 0.0mm, Baro 1008.2h, Hum: 60%(2EA1L-13)
LEHU 43.22.63N 005.49.57WIN73CJ 3.342km 43°NE11:00:23ZHelipuerto del HUCA: LEAS 161030Z 31007KT 280V350 8000 SCT005 19/17 Q1010 NOSIG=
ED1ZAU 43.23.04N 005.52.75WIN73BJ 3.761km 328°NNW11:04:34ZRD625 438.5000/430.9000 CC1
LEMR 43.25.83N 005.49.60WIN73CK 8.658km 15°NNE11:00:25ZAerodromo de la Morgal: LEAS 161030Z 31007KT 280V350 8000 SCT005 19/17 Q1010 NOSIG=
EA1IN 43.25.16N 005.47.43WIN73CK 8.800km 36°NE11:03:58ZMMDVM MMDVM HS Hat 434.7000/434.7000 CC1
LEGM 43.26.15N 005.49.84WIN73CK 9.180km 12°NNE11:00:23ZHelipuerto de La Morgal: LEAS 161030Z 31007KT 280V350 8000 SCT005 19/17 Q1010 NOSIG=
EA1IMW 43.14.36N 005.46.93WIN73CF 14.166km 155°SSE11:03:46ZGRUPO RADIO GALENA (GRG) 433.4500/433.4500 CC1
ED1ZAY 43.29.47N 005.56.54WIN73AL 16.703km 335°NNW11:04:32ZRD625 438.3000/430.7000 CC1
EA1JBL 43.12.28N 005.47.42WIN73CE 17.517km 163°SSE11:03:35ZMMDVM DVMega 435.3000/435.3000 CC1
EB1DGC 43.12.60N 005.45.59WIN73CF 17.880km 155°SSE11:01:38ZMMDVM MMDVM HS Hat 433.4500/433.4500 CC1
EA1HWA 43.12.00N 005.47.40WIN73CE 18.043km 163°SSE11:03:31ZMMDVM MMDVM HS Hat 433.4500/433.4500 CC1
ED1ZAS 43.27.52N 005.40.17WIN73DL 18.864km 52°NE11:04:29ZRD985 438.2250/430.6250 CC1
ED1ZAE 43.27.99N 005.40.54WIN73DL 19.014km 49°NE11:07:34Z2m Voice 145.5875 -0.600 Mhz(3ED1ZAE-C)
WIDE3-3 ESAS3-3 IN73DL WWW.EA1URG.ORG(2ED1ZAE-3)
EA1FLQ 43.22.00N 005.36.35WIN73EI 20.142km 86°E11:03:28ZMMDVM DVMega 430.9750/430.9750 CC1
EA1AHA 43.32.72N 005.54.38WIN73BN 21.553km 349°N11:11:03ZWind 045°/011kn, Böen bis 014kn, Temp 20.56c, Regen 0.0mm, letzte 24h 0.0mm, seit 0h 0.0mm, Baro 1012.1h, Hum: 76%(3EA1AHA-13)
EA1RCG 43.09.45N 005.49.78WIN73CD 22.064km 175°S11:03:59ZGRUPO RADIO GALENA (GRG) 433.4500/433.4500 CC1
EA1AQK 43.16.49N 005.35.99WIN73EG 22.454km 113°ESE11:01:25ZMMDVM MMDVM HS Hat 439.8500/439.8500 CC1
EA1IZV 43.33.25N 005.55.92WIN73AN 22.976km 344°NNW11:00:23ZEn proceso...
EB1TK 43.32.22N 005.42.32WIN73DM 23.541km 31°NNE11:05:20ZWind 359°/005kn, Böen bis 010kn, Temp 21.67c, Regen 0.0mm, letzte 24h 0.0mm, seit 0h 0.0mm, Baro 1013.3h, Hum: 82%(3EB1TK-13)
EA1DZR 43.31.47N 005.40.00WIN73DM 24.163km 39°NE11:04:05ZMMDVM DVMega 431.1000/431.1000 CC1
EA1IEJ 43.31.81N 005.40.64WIN73DM 24.159km 36°NE11:02:11ZMMDVM MMDVM HS Hat 438.8500/438.8500 CC6
LEEL 43.32.98N 005.41.71WIN73DN 25.147km 31°NNE11:00:25ZHelipuerto de El Musel: LEAS 161030Z 31007KT 280V350 8000 SCT005 19/17 Q1010 NOSIG=
EA1DHE 43.33.98N 005.58.57WIN73AN 25.444km 337°NNW11:03:54ZMMDVM DVS 434.3500/434.3500 CC1
EB1GEM 43.30.00N 005.36.07WIN73EM 26.047km 52°NE10:58:26ZWX3in1Plus2.0 U=13.3V,T=??.?C/??.?F(3EB1GEM-3)
ED1ZAD 43.07.90N 005.38.52WIN73ED 30.224km 145°SE10:59:18ZED1ZAD-3 APRS Digi/Igate(3ED1ZAD-3)
EA1HJA 43.28.11N 005.30.41WIN73FL 30.780km 66°ENE11:09:19ZEA1HJA@URE.ES
EA1HJA@QSL.NET(2EA1HJA-12)
IN73FL WX3IN1+ 2.0 - V=13.3V,TX TEMP=36.7C(2EA1HJA-2)
]=(2EA1HJA-9)
EA1FHR 43.28.72N 005.26.41WIN73GL 36.164km 68°ENE11:02:25ZMMDVM MMDVM HS Hat 439.1500/439.1500 CC1
EA1JAY 43.29.33N 005.26.78WIN73GL 36.171km 66°ENE11:00:26ZEA1JAY(3EA1JAY-2)
EA1HWD 43.28.96N 005.26.30WIN73GL 36.483km 67°ENE11:03:11Z144.575FM Local frecuency VHF. 434.2500/434.2500 CC1
LETN 43.20.05N 006.22.69WIN63TI 42.402km 267°W11:00:24ZAerodromo de La Curiscada (Tineo): LEAS 161030Z 31007KT 280V350 8000 SCT005 19/17 Q1010 NOSIG=

aprs.pl 5.0.011w DL3EL © 2006-2021 [465397]